sensor_id;sensor_type;location;lat;lon;timestamp;P1;durP1;ratioP1;P2;durP2;ratioP2
15848;SDS011;8024;48.708;9.394;2022-09-03T00:00:36;1.20;;;0.40;;
15848;SDS011;8024;48.708;9.394;2022-09-03T00:03:09;1.50;;;0.50;;
15848;SDS011;8024;48.708;9.394;2022-09-03T00:05:45;1.47;;;0.43;;
15848;SDS011;8024;48.708;9.394;2022-09-03T00:08:18;1.43;;;0.63;;
15848;SDS011;8024;48.708;9.394;2022-09-03T00:10:50;0.60;;;0.40;;
15848;SDS011;8024;48.708;9.394;2022-09-03T00:13:22;0.40;;;0.40;;
15848;SDS011;8024;48.708;9.394;2022-09-03T00:15:52;2.50;;;0.70;;
15848;SDS011;8024;48.708;9.394;2022-09-03T00:18:22;1.43;;;0.57;;
15848;SDS011;8024;48.708;9.394;2022-09-03T00:20:54;1.60;;;0.50;;
15848;SDS011;8024;48.708;9.394;2022-09-03T00:23:25;1.20;;;0.50;;
15848;SDS011;8024;48.708;9.394;2022-09-03T00:25:55;1.17;;;0.60;;
15848;SDS011;8024;48.708;9.394;2022-09-03T00:28:27;1.60;;;0.60;;
15848;SDS011;8024;48.708;9.394;2022-09-03T00:31:02;0.77;;;0.60;;
15848;SDS011;8024;48.708;9.394;2022-09-03T00:33:36;0.60;;;0.60;;
15848;SDS011;8024;48.708;9.394;2022-09-03T00:36:07;1.47;;;0.50;;
15848;SDS011;8024;48.708;9.394;2022-09-03T00:38:41;0.60;;;0.40;;
15848;SDS011;8024;48.708;9.394;2022-09-03T00:41:10;0.73;;;0.43;;
15848;SDS011;8024;48.708;9.394;2022-09-03T00:43:52;0.77;;;0.43;;
15848;SDS011;8024;48.708;9.394;2022-09-03T00:46:30;0.53;;;0.53;;
15848;SDS011;8024;48.708;9.394;2022-09-03T00:49:10;1.53;;;0.40;;
15848;SDS011;8024;48.708;9.394;2022-09-03T00:52:01;2.77;;;0.60;;
15848;SDS011;8024;48.708;9.394;2022-09-03T00:54:40;0.67;;;0.50;;
15848;SDS011;8024;48.708;9.394;2022-09-03T00:57:18;1.03;;;0.50;;
15848;SDS011;8024;48.708;9.394;2022-09-03T00:59:56;1.90;;;0.70;;
15848;SDS011;8024;48.708;9.394;2022-09-03T01:02:32;1.87;;;0.70;;
15848;SDS011;8024;48.708;9.394;2022-09-03T01:05:13;1.13;;;0.60;;
15848;SDS011;8024;48.708;9.394;2022-09-03T01:07:52;1.70;;;0.50;;
15848;SDS011;8024;48.708;9.394;2022-09-03T01:10:33;0.67;;;0.60;;
15848;SDS011;8024;48.708;9.394;2022-09-03T01:13:09;2.57;;;0.90;;
15848;SDS011;8024;48.708;9.394;2022-09-03T01:15:42;0.87;;;0.73;;
15848;SDS011;8024;48.708;9.394;2022-09-03T01:18:20;0.70;;;0.70;;
15848;SDS011;8024;48.708;9.394;2022-09-03T01:20:54;0.50;;;0.50;;
15848;SDS011;8024;48.708;9.394;2022-09-03T01:26:42;0.80;;;0.43;;
15848;SDS011;8024;48.708;9.394;2022-09-03T01:29:31;0.60;;;0.60;;
15848;SDS011;8024;48.708;9.394;2022-09-03T01:32:05;2.23;;;0.70;;
15848;SDS011;8024;48.708;9.394;2022-09-03T01:34:42;1.37;;;0.70;;
15848;SDS011;8024;48.708;9.394;2022-09-03T01:37:15;0.60;;;0.60;;
15848;SDS011;8024;48.708;9.394;2022-09-03T01:39:54;3.33;;;0.60;;
15848;SDS011;8024;48.708;9.394;2022-09-03T01:42:30;1.73;;;0.77;;
15848;SDS011;8024;48.708;9.394;2022-09-03T01:45:09;1.30;;;0.53;;
15848;SDS011;8024;48.708;9.394;2022-09-03T01:47:50;1.77;;;0.80;;
15848;SDS011;8024;48.708;9.394;2022-09-03T01:50:30;1.53;;;0.53;;
15848;SDS011;8024;48.708;9.394;2022-09-03T01:53:06;1.80;;;0.70;;
15848;SDS011;8024;48.708;9.394;2022-09-03T01:55:43;0.40;;;0.40;;
15848;SDS011;8024;48.708;9.394;2022-09-03T01:58:21;1.50;;;0.63;;
15848;SDS011;8024;48.708;9.394;2022-09-03T02:00:58;1.07;;;0.50;;
15848;SDS011;8024;48.708;9.394;2022-09-03T02:03:32;2.17;;;0.60;;
15848;SDS011;8024;48.708;9.394;2022-09-03T02:06:03;0.97;;;0.57;;
15848;SDS011;8024;48.708;9.394;2022-09-03T02:08:31;0.77;;;0.70;;
15848;SDS011;8024;48.708;9.394;2022-09-03T02:10:59;0.90;;;0.70;;
15848;SDS011;8024;48.708;9.394;2022-09-03T02:13:27;1.43;;;0.93;;
15848;SDS011;8024;48.708;9.394;2022-09-03T02:15:59;2.90;;;0.80;;
15848;SDS011;8024;48.708;9.394;2022-09-03T02:18:35;1.27;;;0.80;;
15848;SDS011;8024;48.708;9.394;2022-09-03T02:21:06;0.73;;;0.50;;
15848;SDS011;8024;48.708;9.394;2022-09-03T02:23:34;1.73;;;0.60;;
15848;SDS011;8024;48.708;9.394;2022-09-03T02:26:04;1.13;;;0.70;;
15848;SDS011;8024;48.708;9.394;2022-09-03T02:28:33;0.87;;;0.70;;
15848;SDS011;8024;48.708;9.394;2022-09-03T02:31:02;2.47;;;0.67;;
15848;SDS011;8024;48.708;9.394;2022-09-03T02:33:29;2.07;;;0.77;;
15848;SDS011;8024;48.708;9.394;2022-09-03T02:35:57;0.80;;;0.60;;
15848;SDS011;8024;48.708;9.394;2022-09-03T02:38:25;2.07;;;0.63;;
15848;SDS011;8024;48.708;9.394;2022-09-03T02:40:52;1.63;;;0.63;;
15848;SDS011;8024;48.708;9.394;2022-09-03T02:43:21;1.07;;;0.50;;
15848;SDS011;8024;48.708;9.394;2022-09-03T02:45:53;1.03;;;0.63;;
15848;SDS011;8024;48.708;9.394;2022-09-03T02:48:25;1.27;;;0.60;;
15848;SDS011;8024;48.708;9.394;2022-09-03T02:50:53;0.97;;;0.70;;
15848;SDS011;8024;48.708;9.394;2022-09-03T02:53:20;1.10;;;0.67;;
15848;SDS011;8024;48.708;9.394;2022-09-03T02:55:47;1.53;;;0.80;;
15848;SDS011;8024;48.708;9.394;2022-09-03T02:58:15;1.03;;;0.77;;
15848;SDS011;8024;48.708;9.394;2022-09-03T03:00:42;1.87;;;0.70;;
15848;SDS011;8024;48.708;9.394;2022-09-03T03:03:09;2.00;;;1.03;;
15848;SDS011;8024;48.708;9.394;2022-09-03T03:05:40;0.53;;;0.53;;
15848;SDS011;8024;48.708;9.394;2022-09-03T03:08:10;0.93;;;0.80;;
15848;SDS011;8024;48.708;9.394;2022-09-03T03:10:39;1.27;;;0.90;;
15848;SDS011;8024;48.708;9.394;2022-09-03T03:13:06;2.93;;;0.70;;
15848;SDS011;8024;48.708;9.394;2022-09-03T03:15:33;3.03;;;0.70;;
15848;SDS011;8024;48.708;9.394;2022-09-03T03:18:00;1.17;;;0.80;;
15848;SDS011;8024;48.708;9.394;2022-09-03T03:20:27;2.60;;;0.80;;
15848;SDS011;8024;48.708;9.394;2022-09-03T03:23:00;3.07;;;0.70;;
15848;SDS011;8024;48.708;9.394;2022-09-03T03:25:30;0.67;;;0.60;;
15848;SDS011;8024;48.708;9.394;2022-09-03T03:27:57;0.73;;;0.73;;
15848;SDS011;8024;48.708;9.394;2022-09-03T03:30:25;1.20;;;0.87;;
15848;SDS011;8024;48.708;9.394;2022-09-03T03:32:53;1.00;;;1.00;;
15848;SDS011;8024;48.708;9.394;2022-09-03T03:35:21;2.13;;;0.80;;
15848;SDS011;8024;48.708;9.394;2022-09-03T03:37:48;2.27;;;0.90;;
15848;SDS011;8024;48.708;9.394;2022-09-03T03:40:17;1.60;;;0.83;;
15848;SDS011;8024;48.708;9.394;2022-09-03T03:42:45;2.33;;;0.77;;
15848;SDS011;8024;48.708;9.394;2022-09-03T03:45:12;1.63;;;0.70;;
15848;SDS011;8024;48.708;9.394;2022-09-03T03:47:39;1.07;;;0.50;;
15848;SDS011;8024;48.708;9.394;2022-09-03T03:50:07;0.77;;;0.70;;
15848;SDS011;8024;48.708;9.394;2022-09-03T03:52:34;0.77;;;0.73;;
15848;SDS011;8024;48.708;9.394;2022-09-03T03:55:02;1.17;;;0.60;;
15848;SDS011;8024;48.708;9.394;2022-09-03T03:57:32;1.63;;;0.70;;
15848;SDS011;8024;48.708;9.394;2022-09-03T04:00:00;1.40;;;0.93;;
15848;SDS011;8024;48.708;9.394;2022-09-03T04:02:27;1.40;;;0.70;;
15848;SDS011;8024;48.708;9.394;2022-09-03T04:04:54;0.80;;;0.80;;
15848;SDS011;8024;48.708;9.394;2022-09-03T04:07:22;1.87;;;0.80;;
15848;SDS011;8024;48.708;9.394;2022-09-03T04:09:49;1.40;;;0.87;;
15848;SDS011;8024;48.708;9.394;2022-09-03T04:12:16;1.00;;;0.77;;
15848;SDS011;8024;48.708;9.394;2022-09-03T04:14:44;2.27;;;0.60;;
15848;SDS011;8024;48.708;9.394;2022-09-03T04:17:12;1.80;;;0.63;;
15848;SDS011;8024;48.708;9.394;2022-09-03T04:19:39;0.90;;;0.63;;
15848;SDS011;8024;48.708;9.394;2022-09-03T04:22:06;1.57;;;0.70;;
15848;SDS011;8024;48.708;9.394;2022-09-03T04:24:33;1.37;;;0.90;;
15848;SDS011;8024;48.708;9.394;2022-09-03T04:27:00;1.70;;;0.80;;
15848;SDS011;8024;48.708;9.394;2022-09-03T04:29:28;0.77;;;0.60;;
15848;SDS011;8024;48.708;9.394;2022-09-03T04:31:57;2.30;;;1.10;;
15848;SDS011;8024;48.708;9.394;2022-09-03T04:34:41;1.80;;;1.10;;
15848;SDS011;8024;48.708;9.394;2022-09-03T04:37:09;2.23;;;1.00;;
15848;SDS011;8024;48.708;9.394;2022-09-03T04:39:36;1.83;;;1.13;;
15848;SDS011;8024;48.708;9.394;2022-09-03T04:42:03;0.87;;;0.70;;
15848;SDS011;8024;48.708;9.394;2022-09-03T04:44:31;1.40;;;0.67;;
15848;SDS011;8024;48.708;9.394;2022-09-03T04:47:02;1.03;;;0.70;;
15848;SDS011;8024;48.708;9.394;2022-09-03T04:49:30;2.30;;;0.73;;
15848;SDS011;8024;48.708;9.394;2022-09-03T04:51:57;2.47;;;1.00;;
15848;SDS011;8024;48.708;9.394;2022-09-03T04:54:25;2.67;;;1.47;;
15848;SDS011;8024;48.708;9.394;2022-09-03T04:56:52;4.10;;;0.70;;
15848;SDS011;8024;48.708;9.394;2022-09-03T04:59:19;1.10;;;0.87;;
15848;SDS011;8024;48.708;9.394;2022-09-03T05:01:46;1.23;;;0.90;;
15848;SDS011;8024;48.708;9.394;2022-09-03T05:04:17;1.30;;;0.70;;
15848;SDS011;8024;48.708;9.394;2022-09-03T05:06:44;3.50;;;1.10;;
15848;SDS011;8024;48.708;9.394;2022-09-03T05:09:12;1.97;;;1.17;;
15848;SDS011;8024;48.708;9.394;2022-09-03T05:11:39;0.77;;;0.77;;
15848;SDS011;8024;48.708;9.394;2022-09-03T05:14:06;3.03;;;1.17;;
15848;SDS011;8024;48.708;9.394;2022-09-03T05:16:35;2.40;;;1.47;;
15848;SDS011;8024;48.708;9.394;2022-09-03T05:19:03;1.73;;;1.10;;
15848;SDS011;8024;48.708;9.394;2022-09-03T05:21:33;1.20;;;1.10;;
15848;SDS011;8024;48.708;9.394;2022-09-03T05:24:01;2.53;;;1.13;;
15848;SDS011;8024;48.708;9.394;2022-09-03T05:26:30;1.30;;;0.97;;
15848;SDS011;8024;48.708;9.394;2022-09-03T05:28:59;1.20;;;1.10;;
15848;SDS011;8024;48.708;9.394;2022-09-03T05:31:28;1.77;;;1.60;;
15848;SDS011;8024;48.708;9.394;2022-09-03T05:33:57;1.47;;;1.10;;
15848;SDS011;8024;48.708;9.394;2022-09-03T05:36:25;1.10;;;1.00;;
15848;SDS011;8024;48.708;9.394;2022-09-03T05:38:56;1.40;;;1.00;;
15848;SDS011;8024;48.708;9.394;2022-09-03T05:41:24;1.70;;;0.97;;
15848;SDS011;8024;48.708;9.394;2022-09-03T05:43:53;1.37;;;1.03;;
15848;SDS011;8024;48.708;9.394;2022-09-03T05:46:23;2.33;;;1.07;;
15848;SDS011;8024;48.708;9.394;2022-09-03T05:48:55;1.93;;;1.00;;
15848;SDS011;8024;48.708;9.394;2022-09-03T05:51:23;1.00;;;1.00;;
15848;SDS011;8024;48.708;9.394;2022-09-03T05:53:51;1.10;;;1.00;;
15848;SDS011;8024;48.708;9.394;2022-09-03T05:56:21;1.77;;;1.10;;
15848;SDS011;8024;48.708;9.394;2022-09-03T05:58:50;3.00;;;1.13;;
15848;SDS011;8024;48.708;9.394;2022-09-03T06:01:19;3.27;;;1.27;;
15848;SDS011;8024;48.708;9.394;2022-09-03T06:03:51;1.53;;;1.20;;
15848;SDS011;8024;48.708;9.394;2022-09-03T06:06:19;0.97;;;0.90;;
15848;SDS011;8024;48.708;9.394;2022-09-03T06:08:49;3.53;;;1.33;;
15848;SDS011;8024;48.708;9.394;2022-09-03T06:11:17;0.70;;;0.70;;
15848;SDS011;8024;48.708;9.394;2022-09-03T06:13:46;2.17;;;0.90;;
15848;SDS011;8024;48.708;9.394;2022-09-03T06:16:14;0.90;;;0.90;;
15848;SDS011;8024;48.708;9.394;2022-09-03T06:18:41;2.07;;;0.87;;
15848;SDS011;8024;48.708;9.394;2022-09-03T06:21:08;2.70;;;1.30;;
15848;SDS011;8024;48.708;9.394;2022-09-03T06:23:35;1.23;;;1.17;;
15848;SDS011;8024;48.708;9.394;2022-09-03T06:26:03;1.63;;;1.07;;
15848;SDS011;8024;48.708;9.394;2022-09-03T06:28:33;1.53;;;0.90;;
15848;SDS011;8024;48.708;9.394;2022-09-03T06:31:04;1.37;;;1.37;;
15848;SDS011;8024;48.708;9.394;2022-09-03T06:33:33;0.80;;;0.80;;
15848;SDS011;8024;48.708;9.394;2022-09-03T06:36:02;1.67;;;1.13;;
15848;SDS011;8024;48.708;9.394;2022-09-03T06:38:31;1.37;;;1.23;;
15848;SDS011;8024;48.708;9.394;2022-09-03T06:41:00;1.37;;;1.10;;
15848;SDS011;8024;48.708;9.394;2022-09-03T06:43:30;1.43;;;0.80;;
15848;SDS011;8024;48.708;9.394;2022-09-03T06:45:58;2.33;;;1.10;;
15848;SDS011;8024;48.708;9.394;2022-09-03T06:48:29;3.10;;;1.00;;
15848;SDS011;8024;48.708;9.394;2022-09-03T06:50:57;1.40;;;1.27;;
15848;SDS011;8024;48.708;9.394;2022-09-03T06:53:25;1.23;;;1.13;;
15848;SDS011;8024;48.708;9.394;2022-09-03T06:55:54;2.03;;;1.10;;
15848;SDS011;8024;48.708;9.394;2022-09-03T06:58:22;3.27;;;1.20;;
15848;SDS011;8024;48.708;9.394;2022-09-03T07:00:50;2.97;;;1.20;;
15848;SDS011;8024;48.708;9.394;2022-09-03T07:03:18;4.07;;;1.23;;
15848;SDS011;8024;48.708;9.394;2022-09-03T07:05:47;1.90;;;1.27;;
15848;SDS011;8024;48.708;9.394;2022-09-03T07:08:14;1.53;;;1.20;;
15848;SDS011;8024;48.708;9.394;2022-09-03T07:10:44;1.50;;;1.10;;
15848;SDS011;8024;48.708;9.394;2022-09-03T07:13:13;3.70;;;1.30;;
15848;SDS011;8024;48.708;9.394;2022-09-03T07:15:40;1.97;;;1.30;;
15848;SDS011;8024;48.708;9.394;2022-09-03T07:18:07;1.57;;;1.27;;
15848;SDS011;8024;48.708;9.394;2022-09-03T07:20:34;1.57;;;1.40;;
15848;SDS011;8024;48.708;9.394;2022-09-03T07:23:03;2.50;;;1.43;;
15848;SDS011;8024;48.708;9.394;2022-09-03T07:25:30;3.07;;;1.47;;
15848;SDS011;8024;48.708;9.394;2022-09-03T07:27:57;2.00;;;1.27;;
15848;SDS011;8024;48.708;9.394;2022-09-03T07:30:25;3.60;;;1.40;;
15848;SDS011;8024;48.708;9.394;2022-09-03T07:32:52;1.77;;;1.67;;
15848;SDS011;8024;48.708;9.394;2022-09-03T07:35:19;1.53;;;1.40;;
15848;SDS011;8024;48.708;9.394;2022-09-03T07:37:49;2.80;;;1.23;;
15848;SDS011;8024;48.708;9.394;2022-09-03T07:40:20;2.23;;;1.70;;
15848;SDS011;8024;48.708;9.394;2022-09-03T07:42:47;1.80;;;1.37;;
15848;SDS011;8024;48.708;9.394;2022-09-03T07:45:15;1.73;;;1.20;;
15848;SDS011;8024;48.708;9.394;2022-09-03T07:47:45;2.50;;;1.13;;
15848;SDS011;8024;48.708;9.394;2022-09-03T07:50:13;1.63;;;1.53;;
15848;SDS011;8024;48.708;9.394;2022-09-03T07:52:41;2.83;;;1.87;;
15848;SDS011;8024;48.708;9.394;2022-09-03T07:55:08;1.90;;;1.40;;
15848;SDS011;8024;48.708;9.394;2022-09-03T07:57:37;1.87;;;1.50;;
15848;SDS011;8024;48.708;9.394;2022-09-03T08:00:05;1.70;;;1.53;;
15848;SDS011;8024;48.708;9.394;2022-09-03T08:02:34;1.73;;;1.63;;
15848;SDS011;8024;48.708;9.394;2022-09-03T08:05:01;1.90;;;1.73;;
15848;SDS011;8024;48.708;9.394;2022-09-03T08:07:29;2.63;;;1.50;;
15848;SDS011;8024;48.708;9.394;2022-09-03T08:09:56;2.37;;;1.93;;
15848;SDS011;8024;48.708;9.394;2022-09-03T08:12:23;1.97;;;1.67;;
15848;SDS011;8024;48.708;9.394;2022-09-03T08:14:53;1.47;;;1.37;;
15848;SDS011;8024;48.708;9.394;2022-09-03T08:17:22;1.67;;;1.57;;
15848;SDS011;8024;48.708;9.394;2022-09-03T08:19:49;2.27;;;1.23;;
15848;SDS011;8024;48.708;9.394;2022-09-03T08:22:16;1.70;;;1.60;;
15848;SDS011;8024;48.708;9.394;2022-09-03T08:24:46;2.43;;;1.57;;
15848;SDS011;8024;48.708;9.394;2022-09-03T08:27:14;1.83;;;1.57;;
15848;SDS011;8024;48.708;9.394;2022-09-03T08:29:49;1.40;;;1.30;;
15848;SDS011;8024;48.708;9.394;2022-09-03T08:32:18;1.40;;;1.30;;
15848;SDS011;8024;48.708;9.394;2022-09-03T08:34:46;2.07;;;1.87;;
15848;SDS011;8024;48.708;9.394;2022-09-03T08:37:14;3.23;;;1.50;;
15848;SDS011;8024;48.708;9.394;2022-09-03T08:39:41;2.10;;;1.90;;
15848;SDS011;8024;48.708;9.394;2022-09-03T08:42:15;1.90;;;1.80;;
15848;SDS011;8024;48.708;9.394;2022-09-03T08:44:54;2.53;;;1.60;;
15848;SDS011;8024;48.708;9.394;2022-09-03T08:47:24;3.43;;;1.67;;
15848;SDS011;8024;48.708;9.394;2022-09-03T08:49:55;2.10;;;1.73;;
15848;SDS011;8024;48.708;9.394;2022-09-03T08:52:27;3.93;;;2.07;;
15848;SDS011;8024;48.708;9.394;2022-09-03T08:54:59;1.90;;;1.60;;
15848;SDS011;8024;48.708;9.394;2022-09-03T08:57:39;1.70;;;1.60;;
15848;SDS011;8024;48.708;9.394;2022-09-03T09:00:11;2.07;;;1.93;;
15848;SDS011;8024;48.708;9.394;2022-09-03T09:02:43;3.37;;;1.87;;
15848;SDS011;8024;48.708;9.394;2022-09-03T09:05:19;2.53;;;1.90;;
15848;SDS011;8024;48.708;9.394;2022-09-03T09:07:50;4.20;;;1.90;;
15848;SDS011;8024;48.708;9.394;2022-09-03T09:10:25;1.70;;;1.60;;
15848;SDS011;8024;48.708;9.394;2022-09-03T09:13:00;2.10;;;1.67;;
15848;SDS011;8024;48.708;9.394;2022-09-03T09:15:39;2.20;;;1.70;;
15848;SDS011;8024;48.708;9.394;2022-09-03T09:18:15;1.90;;;1.80;;
15848;SDS011;8024;48.708;9.394;2022-09-03T09:20:48;1.87;;;1.50;;
15848;SDS011;8024;48.708;9.394;2022-09-03T09:23:19;1.57;;;1.47;;
15848;SDS011;8024;48.708;9.394;2022-09-03T09:25:51;2.20;;;1.50;;
15848;SDS011;8024;48.708;9.394;2022-09-03T09:28:21;1.20;;;1.20;;
15848;SDS011;8024;48.708;9.394;2022-09-03T09:30:51;1.70;;;1.60;;
15848;SDS011;8024;48.708;9.394;2022-09-03T09:33:22;1.57;;;1.50;;
15848;SDS011;8024;48.708;9.394;2022-09-03T09:35:50;2.53;;;1.58;;
15848;SDS011;8024;48.708;9.394;2022-09-03T09:38:26;1.60;;;1.40;;
15848;SDS011;8024;48.708;9.394;2022-09-03T09:40:54;3.87;;;1.30;;
15848;SDS011;8024;48.708;9.394;2022-09-03T09:43:23;2.60;;;1.60;;
15848;SDS011;8024;48.708;9.394;2022-09-03T09:45:51;2.50;;;1.40;;
15848;SDS011;8024;48.708;9.394;2022-09-03T09:48:20;1.80;;;1.70;;
15848;SDS011;8024;48.708;9.394;2022-09-03T09:51:02;2.40;;;1.60;;
15848;SDS011;8024;48.708;9.394;2022-09-03T09:53:31;2.20;;;1.95;;
15848;SDS011;8024;48.708;9.394;2022-09-03T09:55:59;2.77;;;2.00;;
15848;SDS011;8024;48.708;9.394;2022-09-03T09:58:27;2.00;;;1.90;;
15848;SDS011;8024;48.708;9.394;2022-09-03T10:01:00;2.00;;;1.73;;
15848;SDS011;8024;48.708;9.394;2022-09-03T10:03:33;1.67;;;1.57;;
15848;SDS011;8024;48.708;9.394;2022-09-03T10:06:02;2.23;;;1.50;;
15848;SDS011;8024;48.708;9.394;2022-09-03T10:08:45;1.60;;;1.50;;
15848;SDS011;8024;48.708;9.394;2022-09-03T10:11:13;1.93;;;1.70;;
15848;SDS011;8024;48.708;9.394;2022-09-03T10:13:41;7.30;;;2.43;;
15848;SDS011;8024;48.708;9.394;2022-09-03T10:16:14;13.73;;;2.70;;
15848;SDS011;8024;48.708;9.394;2022-09-03T10:18:50;2.25;;;1.65;;
15848;SDS011;8024;48.708;9.394;2022-09-03T10:21:39;1.95;;;1.60;;
15848;SDS011;8024;48.708;9.394;2022-09-03T10:24:14;3.33;;;1.48;;
15848;SDS011;8024;48.708;9.394;2022-09-03T10:27:06;3.05;;;1.70;;
15848;SDS011;8024;48.708;9.394;2022-09-03T10:29:35;2.40;;;1.40;;
15848;SDS011;8024;48.708;9.394;2022-09-03T10:32:09;1.35;;;1.30;;
15848;SDS011;8024;48.708;9.394;2022-09-03T10:34:51;1.60;;;1.50;;
15848;SDS011;8024;48.708;9.394;2022-09-03T10:37:32;3.38;;;1.52;;
15848;SDS011;8024;48.708;9.394;2022-09-03T10:40:14;1.60;;;1.50;;
15848;SDS011;8024;48.708;9.394;2022-09-03T10:42:57;1.27;;;1.27;;
15848;SDS011;8024;48.708;9.394;2022-09-03T10:45:34;2.13;;;1.92;;
15848;SDS011;8024;48.708;9.394;2022-09-03T10:51:10;2.23;;;1.53;;
15848;SDS011;8024;48.708;9.394;2022-09-03T10:53:46;1.33;;;1.23;;
15848;SDS011;8024;48.708;9.394;2022-09-03T10:56:30;1.52;;;1.23;;
15848;SDS011;8024;48.708;9.394;2022-09-03T10:59:24;1.60;;;1.50;;
15848;SDS011;8024;48.708;9.394;2022-09-03T11:02:05;1.42;;;1.27;;
15848;SDS011;8024;48.708;9.394;2022-09-03T11:04:55;1.50;;;1.33;;
15848;SDS011;8024;48.708;9.394;2022-09-03T11:07:31;2.00;;;1.80;;
15848;SDS011;8024;48.708;9.394;2022-09-03T11:10:05;1.83;;;1.38;;
15848;SDS011;8024;48.708;9.394;2022-09-03T11:12:39;1.93;;;1.70;;
15848;SDS011;8024;48.708;9.394;2022-09-03T11:15:22;1.75;;;1.65;;
15848;SDS011;8024;48.708;9.394;2022-09-03T11:17:53;3.22;;;1.55;;
15848;SDS011;8024;48.708;9.394;2022-09-03T11:20:26;2.08;;;1.88;;
15848;SDS011;8024;48.708;9.394;2022-09-03T11:22:56;1.50;;;1.47;;
15848;SDS011;8024;48.708;9.394;2022-09-03T11:25:26;2.22;;;2.00;;
15848;SDS011;8024;48.708;9.394;2022-09-03T11:28:01;2.03;;;1.92;;
15848;SDS011;8024;48.708;9.394;2022-09-03T11:30:37;3.57;;;1.73;;
15848;SDS011;8024;48.708;9.394;2022-09-03T11:33:16;1.53;;;1.23;;
15848;SDS011;8024;48.708;9.394;2022-09-03T11:35:48;1.73;;;1.63;;
15848;SDS011;8024;48.708;9.394;2022-09-03T11:38:23;2.77;;;1.93;;
15848;SDS011;8024;48.708;9.394;2022-09-03T11:40:59;1.47;;;1.40;;
15848;SDS011;8024;48.708;9.394;2022-09-03T11:43:30;2.90;;;1.83;;
15848;SDS011;8024;48.708;9.394;2022-09-03T11:46:25;2.37;;;1.43;;
15848;SDS011;8024;48.708;9.394;2022-09-03T11:48:54;3.27;;;1.87;;
15848;SDS011;8024;48.708;9.394;2022-09-03T11:51:31;1.70;;;1.60;;
15848;SDS011;8024;48.708;9.394;2022-09-03T11:54:04;2.47;;;1.53;;
15848;SDS011;8024;48.708;9.394;2022-09-03T11:56:32;1.50;;;1.40;;
15848;SDS011;8024;48.708;9.394;2022-09-03T11:59:05;4.63;;;1.50;;
15848;SDS011;8024;48.708;9.394;2022-09-03T12:01:46;1.77;;;1.50;;
15848;SDS011;8024;48.708;9.394;2022-09-03T12:04:17;1.70;;;1.30;;
15848;SDS011;8024;48.708;9.394;2022-09-03T12:07:00;1.60;;;1.50;;
15848;SDS011;8024;48.708;9.394;2022-09-03T12:09:49;33.90;;;4.87;;
15848;SDS011;8024;48.708;9.394;2022-09-03T12:12:37;3.37;;;2.00;;
15848;SDS011;8024;48.708;9.394;2022-09-03T12:15:16;2.30;;;1.63;;
15848;SDS011;8024;48.708;9.394;2022-09-03T12:18:01;3.70;;;2.00;;
15848;SDS011;8024;48.708;9.394;2022-09-03T12:21:01;3.73;;;2.17;;
15848;SDS011;8024;48.708;9.394;2022-09-03T12:23:33;3.67;;;2.07;;
15848;SDS011;8024;48.708;9.394;2022-09-03T12:26:08;3.27;;;1.50;;
15848;SDS011;8024;48.708;9.394;2022-09-03T12:28:39;3.77;;;0.87;;
15848;SDS011;8024;48.708;9.394;2022-09-03T12:31:07;1.47;;;1.17;;
15848;SDS011;8024;48.708;9.394;2022-09-03T12:33:44;2.40;;;0.80;;
15848;SDS011;8024;48.708;9.394;2022-09-03T12:36:12;2.47;;;0.60;;
15848;SDS011;8024;48.708;9.394;2022-09-03T12:38:40;2.20;;;0.80;;
15848;SDS011;8024;48.708;9.394;2022-09-03T12:41:19;4.80;;;0.90;;
15848;SDS011;8024;48.708;9.394;2022-09-03T12:43:51;1.10;;;0.80;;
15848;SDS011;8024;48.708;9.394;2022-09-03T12:46:21;2.00;;;0.73;;
15848;SDS011;8024;48.708;9.394;2022-09-03T12:48:59;2.53;;;0.90;;
15848;SDS011;8024;48.708;9.394;2022-09-03T12:51:32;0.67;;;0.67;;
15848;SDS011;8024;48.708;9.394;2022-09-03T12:54:02;3.20;;;0.70;;
15848;SDS011;8024;48.708;9.394;2022-09-03T12:56:32;2.70;;;1.17;;
15848;SDS011;8024;48.708;9.394;2022-09-03T12:59:02;3.00;;;0.90;;
15848;SDS011;8024;48.708;9.394;2022-09-03T13:01:33;2.30;;;1.00;;
15848;SDS011;8024;48.708;9.394;2022-09-03T13:04:06;2.57;;;1.03;;
15848;SDS011;8024;48.708;9.394;2022-09-03T13:06:42;1.47;;;0.77;;
15848;SDS011;8024;48.708;9.394;2022-09-03T13:09:18;2.17;;;0.90;;
15848;SDS011;8024;48.708;9.394;2022-09-03T13:11:49;1.93;;;0.97;;
15848;SDS011;8024;48.708;9.394;2022-09-03T13:14:19;3.00;;;1.20;;
15848;SDS011;8024;48.708;9.394;2022-09-03T13:19:57;2.53;;;0.70;;
15848;SDS011;8024;48.708;9.394;2022-09-03T13:22:36;4.03;;;0.77;;
15848;SDS011;8024;48.708;9.394;2022-09-03T13:25:12;2.80;;;1.00;;
15848;SDS011;8024;48.708;9.394;2022-09-03T13:27:51;1.97;;;0.83;;
15848;SDS011;8024;48.708;9.394;2022-09-03T13:30:28;2.40;;;1.37;;
15848;SDS011;8024;48.708;9.394;2022-09-03T13:33:00;2.13;;;1.00;;
15848;SDS011;8024;48.708;9.394;2022-09-03T13:35:32;1.40;;;0.90;;
15848;SDS011;8024;48.708;9.394;2022-09-03T13:38:05;3.80;;;0.67;;
15848;SDS011;8024;48.708;9.394;2022-09-03T13:40:40;2.00;;;0.67;;
15848;SDS011;8024;48.708;9.394;2022-09-03T13:43:18;2.93;;;1.10;;
15848;SDS011;8024;48.708;9.394;2022-09-03T13:45:51;2.07;;;1.30;;
15848;SDS011;8024;48.708;9.394;2022-09-03T13:48:24;2.03;;;1.20;;
15848;SDS011;8024;48.708;9.394;2022-09-03T13:51:14;1.27;;;0.73;;
15848;SDS011;8024;48.708;9.394;2022-09-03T13:53:48;1.43;;;0.60;;
15848;SDS011;8024;48.708;9.394;2022-09-03T13:56:26;2.23;;;0.73;;
15848;SDS011;8024;48.708;9.394;2022-09-03T13:59:03;3.57;;;1.07;;
15848;SDS011;8024;48.708;9.394;2022-09-03T14:01:45;2.83;;;0.93;;
15848;SDS011;8024;48.708;9.394;2022-09-03T14:04:27;1.23;;;0.57;;
15848;SDS011;8024;48.708;9.394;2022-09-03T14:07:00;1.03;;;0.40;;
15848;SDS011;8024;48.708;9.394;2022-09-03T14:09:34;0.87;;;0.40;;
15848;SDS011;8024;48.708;9.394;2022-09-03T14:12:17;1.73;;;0.30;;
15848;SDS011;8024;48.708;9.394;2022-09-03T14:14:55;1.70;;;0.60;;
15848;SDS011;8024;48.708;9.394;2022-09-03T14:17:30;0.60;;;0.30;;
15848;SDS011;8024;48.708;9.394;2022-09-03T14:20:03;1.27;;;0.37;;
15848;SDS011;8024;48.708;9.394;2022-09-03T14:22:39;2.43;;;0.40;;
15848;SDS011;8024;48.708;9.394;2022-09-03T14:25:15;3.33;;;0.47;;
15848;SDS011;8024;48.708;9.394;2022-09-03T14:27:44;0.77;;;0.77;;
15848;SDS011;8024;48.708;9.394;2022-09-03T14:30:25;0.40;;;0.40;;
15848;SDS011;8024;48.708;9.394;2022-09-03T14:33:02;1.03;;;0.20;;
15848;SDS011;8024;48.708;9.394;2022-09-03T14:35:47;2.03;;;0.30;;
15848;SDS011;8024;48.708;9.394;2022-09-03T14:38:29;0.50;;;0.20;;
15848;SDS011;8024;48.708;9.394;2022-09-03T14:41:17;0.47;;;0.20;;
15848;SDS011;8024;48.708;9.394;2022-09-03T14:44:02;1.30;;;0.33;;
15848;SDS011;8024;48.708;9.394;2022-09-03T14:46:46;2.33;;;0.50;;
15848;SDS011;8024;48.708;9.394;2022-09-03T14:49:37;1.20;;;0.30;;
15848;SDS011;8024;48.708;9.394;2022-09-03T14:52:20;2.00;;;0.43;;
15848;SDS011;8024;48.708;9.394;2022-09-03T14:55:04;1.47;;;0.60;;
15848;SDS011;8024;48.708;9.394;2022-09-03T14:57:47;1.25;;;0.40;;
15848;SDS011;8024;48.708;9.394;2022-09-03T15:00:31;0.30;;;0.20;;
15848;SDS011;8024;48.708;9.394;2022-09-03T15:06:10;0.93;;;0.20;;
15848;SDS011;8024;48.708;9.394;2022-09-03T15:08:44;0.57;;;0.20;;
15848;SDS011;8024;48.708;9.394;2022-09-03T15:11:20;0.20;;;0.20;;
15848;SDS011;8024;48.708;9.394;2022-09-03T15:13:50;0.30;;;0.22;;
15848;SDS011;8024;48.708;9.394;2022-09-03T15:16:26;0.40;;;0.20;;
15848;SDS011;8024;48.708;9.394;2022-09-03T15:19:06;0.52;;;0.30;;
15848;SDS011;8024;48.708;9.394;2022-09-03T15:21:43;0.75;;;0.30;;
15848;SDS011;8024;48.708;9.394;2022-09-03T15:24:23;1.17;;;0.30;;
15848;SDS011;8024;48.708;9.394;2022-09-03T15:27:06;0.95;;;0.30;;
15848;SDS011;8024;48.708;9.394;2022-09-03T15:29:48;0.80;;;0.40;;
15848;SDS011;8024;48.708;9.394;2022-09-03T15:32:21;0.65;;;0.20;;
15848;SDS011;8024;48.708;9.394;2022-09-03T15:35:08;2.47;;;1.33;;
15848;SDS011;8024;48.708;9.394;2022-09-03T15:37:57;0.30;;;0.30;;
15848;SDS011;8024;48.708;9.394;2022-09-03T15:40:28;0.65;;;0.30;;
15848;SDS011;8024;48.708;9.394;2022-09-03T15:42:59;0.25;;;0.20;;
15848;SDS011;8024;48.708;9.394;2022-09-03T15:45:36;1.02;;;0.38;;